Terminal Aerodrome Forecast
Issued by NWS

Home | Current Version | Previous Version | Text Only | Print | Product List | Glossary On
Versions: 1 2 3 4 5 6 7 8 9 10 11 12 13 14 15 16 17 18 19 20 21 22 23 24 25 26 27 28 29 30
825
FTUS44 KMAF 211505 AAA
TAFINK
TAF AMD
KINK 211505Z 2115/2212 15010KT P6SM -SHRA BKN120
     FM211700 16009KT P6SM -SHRA BKN020
      TEMPO 2118/2122 VRB20G30KT 5SM TSRA BKN010CB=

USA.gov is the U.S. government's official web portal to all federal, state and local government web resources and services.